Hauptseite
METAR-TAF:

METAR-TAF

Flughäfen :

Duschanbe, Tadschikistan

Flughafen Duschanbe

Breite: 38-33N, Länge: 068-47E, Höhe: 803 m

Beobachtung

Neuester Wetterbericht von vor 35 Minuten, um 13:30 UTC
Wind 6 kt aus Nord/Nordost
Temperatur 15°C
Luftfeuchtigkeit 39%
Luftdruck 1017 hPa
Sichtweite: 7000 m

METAR: UTDD 201330Z 02003MPS 7000 NSC 15/01 Q1017 R09/D NOSIG RMK QFE694/0926

Zeit: 19:05 (14:05 UTC)

Prognose

Neuester Wetterbericht von vor 2 Stunden und 5 Minuten, um 12:00 UTC
Gültige Prognose vom 20 um 13 UTC bis 21 um 01 UTC
Wind 4 kt aus unterschiedlichen Richtungen
Sichtweite: 6000 m
Zeitweise
vom 20 um 13 UTC bis 21 um 01 UTC
Sichtweite: 3000 m
trockener Dunst

TAF: UTDD 201200Z 2013/2101 VRB02MPS 6000 NSC TEMPO 2013/2101 3000 HZ

Wetterbeobachtungen und Prognosen von mehr als 4000 Flughäfen (METAR und TAF Bericht).

Die verfügbaren Stationen werden durch gelbe und rote Markierungen auf der Karte dargestellt.

Führen Sie die Maus auf sie, um den Namen der Station zu sehen.

Darauf klicken, um die Beobachtung von Wetterbeobachtungen und Prognosen zu sehen.

Um die Karte zu ändern : klicken Sie auf den grünen Tasten mit einem schwarzen Kreuz Zum Vergrößern, auf den grünen Button mit einem Gedankenstrich zu verkleinern, oder auf die grünen Pfeile für benachbarte Karten.


METAR-TAF: